Time;durP1;ratioP1;P1;durP2;ratioP2;P2;SDS_P1;SDS_P2;PMS_P1;PMS_P2;Temp;Humidity;BMP_temperature;BMP_pressure;BME280_temperature;BME280_humidity;BME280_pressure;Samples;Min_cycle;Max_cycle;Signal;HPM_P1;HPM_P2
2024/01/02 00:01:09;;;;;;;85.40;48.50;;;;;;;5.14;86.52;100288.64;109174;1252;65101;-67
2024/01/02 00:03:40;;;;;;;86.70;49.20;;;;;;;5.13;86.52;100287.41;109046;1253;137909;-66
2024/01/02 00:06:07;;;;;;;85.60;48.90;;;;;;;5.15;86.49;100285.57;109139;1253;59176;-67
2024/01/02 00:08:34;;;;;;;80.40;46.70;;;;;;;5.15;86.42;100289.91;109226;1252;60810;-66
2024/01/02 00:11:00;;;;;;;74.60;45.10;;;;;;;5.16;86.43;100285.77;109049;1251;138606;-65
2024/01/02 00:13:27;;;;;;;82.40;47.10;;;;;;;5.17;86.42;100288.77;109199;1253;63995;-66
2024/01/02 00:15:54;;;;;;;79.90;47.20;;;;;;;5.18;86.35;100288.48;109067;1253;138778;-66
2024/01/02 00:18:20;;;;;;;78.10;46.30;;;;;;;5.20;86.29;100289.05;109139;1253;60604;-66
2024/01/02 00:20:47;;;;;;;79.20;46.10;;;;;;;5.22;86.32;100287.94;109084;1252;138623;-65
2024/01/02 00:23:13;;;;;;;74.60;44.60;;;;;;;5.25;86.39;100295.02;109217;1253;74945;-65
2024/01/02 00:25:40;;;;;;;77.10;45.70;;;;;;;5.27;86.35;100292.98;105820;1253;67140;-67
2024/01/02 00:28:07;;;;;;;74.70;44.50;;;;;;;5.30;86.42;100292.22;104873;1253;139383;-68
2024/01/02 00:30:34;;;;;;;77.50;45.60;;;;;;;5.33;86.40;100294.45;105133;1256;61276;-68
2024/01/02 00:33:03;;;;;;;78.60;47.40;;;;;;;5.34;86.25;100290.11;105045;1253;138668;-69
2024/01/02 00:35:30;;;;;;;79.00;46.90;;;;;;;5.35;86.45;100288.79;109176;1252;75330;-68
2024/01/02 00:37:56;;;;;;;81.80;47.20;;;;;;;5.36;86.38;100287.45;105098;1256;66818;-68
2024/01/02 00:40:23;;;;;;;90.20;50.40;;;;;;;5.36;86.28;100289.67;105009;1252;138635;-68
2024/01/02 00:42:50;;;;;;;114.20;55.80;;;;;;;5.36;86.29;100287.96;105085;1254;61281;-58
2024/01/02 00:45:16;;;;;;;113.90;57.10;;;;;;;5.35;86.29;100282.31;105183;1252;139389;-59
2024/01/02 00:47:43;;;;;;;110.10;55.60;;;;;;;5.34;86.31;100277.08;105250;1254;74151;-59
2024/01/02 00:50:10;;;;;;;102.90;52.10;;;;;;;5.36;86.48;100280.13;105151;1254;65635;-60
2024/01/02 00:52:37;;;;;;;104.20;53.30;;;;;;;5.36;86.38;100281.53;105146;1256;138736;-60
2024/01/02 00:55:04;;;;;;;88.70;49.10;;;;;;;5.36;86.40;100274.55;105218;1253;61251;-59
2024/01/02 00:57:31;;;;;;;97.10;54.30;;;;;;;5.32;86.26;100266.23;108749;1253;139177;-58
2024/01/02 00:59:58;;;;;;;85.60;48.20;;;;;;;5.26;86.16;100263.92;109163;1252;72807;-59
2024/01/02 01:02:25;;;;;;;99.40;52.70;;;;;;;5.24;86.22;100264.35;109104;1252;66373;-58
2024/01/02 01:04:52;;;;;;;92.70;51.00;;;;;;;5.21;86.19;100262.14;108884;1252;141107;-59
2024/01/02 01:07:19;;;;;;;96.90;51.00;;;;;;;5.18;86.24;100257.85;108862;1253;59486;-60
2024/01/02 01:09:45;;;;;;;104.60;51.60;;;;;;;5.17;86.20;100265.63;104879;1252;138817;-60
2024/01/02 01:12:12;;;;;;;95.90;52.60;;;;;;;5.19;86.48;100265.36;105296;1251;72561;-58
2024/01/02 01:14:39;;;;;;;102.00;54.90;;;;;;;5.20;86.32;100263.16;105084;1252;65845;-66
2024/01/02 01:17:06;;;;;;;111.30;57.00;;;;;;;5.22;86.46;100262.86;104952;1253;138798;-66
2024/01/02 01:19:33;;;;;;;105.80;56.10;;;;;;;5.22;86.48;100271.08;109196;1252;59057;-59
2024/01/02 01:21:59;;;;;;;106.40;55.20;;;;;;;5.24;86.55;100276.35;108987;1252;140102;-59
2024/01/02 01:24:26;;;;;;;103.90;56.10;;;;;;;5.26;86.49;100283.91;105259;1253;74424;-59
2024/01/02 01:26:53;;;;;;;109.10;56.80;;;;;;;5.29;86.53;100286.61;105081;1256;141084;-58
2024/01/02 01:29:20;;;;;;;109.10;55.80;;;;;;;5.30;86.51;100290.48;105117;1253;73485;-59
2024/01/02 01:31:47;;;;;;;105.80;54.90;;;;;;;5.31;86.51;100298.02;105043;1253;61381;-65
2024/01/02 01:34:17;;;;;;;105.00;54.30;;;;;;;5.31;86.48;100301.16;104978;1255;140152;-67
2024/01/02 01:36:43;;;;;;;106.50;54.00;;;;;;;5.29;86.35;100299.86;106172;1253;75625;-58
2024/01/02 01:39:10;;;;;;;100.90;53.10;;;;;;;5.26;86.34;100299.58;104985;1255;140875;-59
2024/01/02 01:41:37;;;;;;;98.00;51.90;;;;;;;5.22;86.29;100296.65;105108;1256;70877;-65
2024/01/02 01:44:04;;;;;;;98.30;52.50;;;;;;;5.18;86.29;100294.91;105165;1256;61267;-64
2024/01/02 01:46:35;;;;;;;97.10;53.20;;;;;;;5.13;86.16;100292.08;105159;1256;138635;-58
2024/01/02 01:49:02;;;;;;;95.00;51.10;;;;;;;5.12;86.42;100288.05;105197;1254;75199;-65
2024/01/02 01:51:29;;;;;;;99.70;51.60;;;;;;;5.13;86.51;100279.92;106884;1255;138843;-66
2024/01/02 01:53:57;;;;;;;97.00;51.60;;;;;;;5.15;86.65;100285.03;104868;1259;73326;-66
2024/01/02 01:56:23;;;;;;;94.70;51.60;;;;;;;5.16;86.65;100284.54;109189;1251;59386;-65
2024/01/02 01:58:50;;;;;;;87.90;49.10;;;;;;;5.17;86.65;100280.77;109029;1253;139691;-66
2024/01/02 02:01:17;;;;;;;93.10;50.50;;;;;;;5.17;86.53;100279.20;109160;1253;75890;-67
2024/01/02 02:03:43;;;;;;;91.20;51.10;;;;;;;5.17;86.50;100279.73;109054;1252;139297;-67
2024/01/02 02:06:10;;;;;;;95.10;52.50;;;;;;;5.18;86.49;100279.23;109088;1253;71413;-67
2024/01/02 02:08:37;;;;;;;92.80;49.90;;;;;;;5.18;86.47;100278.72;109167;1252;60691;-66
2024/01/02 02:11:04;;;;;;;90.80;49.00;;;;;;;5.20;86.43;100277.58;109065;1252;138663;-66
2024/01/02 02:13:31;;;;;;;99.00;51.60;;;;;;;5.21;86.49;100278.68;109103;1251;76064;-65
2024/01/02 02:15:57;;;;;;;99.80;52.50;;;;;;;5.24;86.56;100273.55;108757;1252;139082;-65
2024/01/02 02:18:24;;;;;;;96.90;51.90;;;;;;;5.24;86.35;100272.02;109189;1252;71464;-65
2024/01/02 02:20:51;;;;;;;95.00;51.20;;;;;;;5.23;86.29;100267.45;108969;1252;139318;-64
2024/01/02 02:23:17;;;;;;;95.10;50.40;;;;;;;5.24;86.35;100269.58;106927;1256;61234;-65
2024/01/02 02:25:44;;;;;;;94.40;51.10;;;;;;;5.25;86.35;100271.69;105279;1253;73813;-60
2024/01/02 02:28:11;;;;;;;92.30;50.00;;;;;;;5.26;86.33;100276.10;105394;1253;139387;-66
2024/01/02 02:30:37;;;;;;;97.50;51.40;;;;;;;5.26;86.26;100274.52;105410;1253;73579;-66
2024/01/02 02:33:04;;;;;;;86.40;48.60;;;;;;;5.27;86.26;100272.95;105163;1252;139350;-65
2024/01/02 02:35:31;;;;;;;91.80;50.10;;;;;;;5.26;86.37;100272.62;105241;1256;60274;-59
2024/01/02 02:37:57;;;;;;;93.30;51.00;;;;;;;5.25;86.22;100266.49;105316;1256;75531;-59
2024/01/02 02:40:25;;;;;;;95.20;51.30;;;;;;;5.25;86.28;100265.77;105275;1255;138525;-60
2024/01/02 02:42:52;;;;;;;93.60;50.40;;;;;;;5.24;86.27;100265.60;109111;1252;73440;-59
2024/01/02 02:45:18;;;;;;;92.40;50.20;;;;;;;5.23;86.21;100269.54;108984;1251;138788;-59
2024/01/02 02:47:45;;;;;;;89.70;48.00;;;;;;;5.22;86.28;100271.91;109152;1252;61496;-59
2024/01/02 02:50:12;;;;;;;97.50;51.40;;;;;;;5.19;85.95;100273.20;109070;1253;74625;-59
2024/01/02 02:52:38;;;;;;;87.30;48.40;;;;;;;5.13;85.95;100273.99;105083;1259;137911;-59
2024/01/02 02:55:06;;;;;;;87.10;48.20;;;;;;;5.14;86.25;100270.56;105341;1253;73526;-58
2024/01/02 02:57:33;;;;;;;97.00;51.50;;;;;;;5.20;86.47;100268.17;109046;1252;138989;-58
2024/01/02 03:00:00;;;;;;;92.10;49.20;;;;;;;5.21;86.30;100268.73;109194;1253;61761;-64
2024/01/02 03:02:26;;;;;;;90.30;50.90;;;;;;;5.19;86.25;100271.48;109214;1253;73368;-66
2024/01/02 03:04:53;;;;;;;90.10;47.40;;;;;;;5.20;86.37;100266.95;109062;1253;138730;-66
2024/01/02 03:07:20;;;;;;;85.30;48.20;;;;;;;5.22;86.34;100266.89;108111;1253;73960;-66
2024/01/02 03:09:46;;;;;;;99.70;50.30;;;;;;;5.23;86.28;100263.45;105405;1256;138621;-67
2024/01/02 03:12:13;;;;;;;89.80;48.00;;;;;;;5.24;86.20;100261.05;105373;1257;61247;-67
2024/01/02 03:14:40;;;;;;;89.80;48.50;;;;;;;5.22;86.14;100259.06;105337;1255;75256;-65
2024/01/02 03:17:07;;;;;;;87.20;47.40;;;;;;;5.21;86.27;100258.49;105388;1256;138619;-67
2024/01/02 03:19:33;;;;;;;91.30;46.90;;;;;;;5.21;86.33;100261.27;105390;1256;73766;-67
2024/01/02 03:22:00;;;;;;;95.50;49.30;;;;;;;5.20;86.34;100262.09;105429;1251;138855;-66
2024/01/02 03:24:27;;;;;;;89.70;49.70;;;;;;;5.20;86.39;100267.68;105367;1252;61247;-66
2024/01/02 03:26:54;;;;;;;88.30;48.60;;;;;;;5.20;86.45;100269.25;105149;1254;138766;-66
2024/01/02 03:29:21;;;;;;;87.20;48.50;;;;;;;5.21;86.51;100266.84;105464;1256;65827;-66
2024/01/02 03:31:48;;;;;;;86.60;48.10;;;;;;;5.21;86.50;100269.98;105237;1258;71177;-66
2024/01/02 03:34:14;;;;;;;97.30;50.20;;;;;;;5.18;86.30;100266.55;105273;1253;139003;-66
2024/01/02 03:36:41;;;;;;;89.30;49.40;;;;;;;5.14;86.32;100266.73;105292;1252;61251;-67
2024/01/02 03:39:08;;;;;;;84.30;48.30;;;;;;;5.09;86.28;100265.86;105109;1253;139193;-67
2024/01/02 03:41:34;;;;;;;102.80;55.00;;;;;;;5.07;86.42;100265.09;105190;1257;67305;-66
2024/01/02 03:44:01;;;;;;;97.50;52.30;;;;;;;5.01;86.23;100267.61;105369;1253;72567;-66
2024/01/02 03:46:28;;;;;;;109.00;54.60;;;;;;;4.92;86.22;100270.75;105201;1253;138762;-65
2024/01/02 03:48:54;;;;;;;103.50;51.30;;;;;;;4.87;86.30;100269.86;105529;1253;61258;-66
2024/01/02 03:51:21;;;;;;;112.00;52.70;;;;;;;4.81;86.34;100273.63;105273;1253;139116;-67
2024/01/02 03:53:48;;;;;;;111.10;54.10;;;;;;;4.75;86.44;100268.33;105306;1256;67029;-67
2024/01/02 03:56:16;;;;;;;112.70;54.80;;;;;;;4.71;86.57;100269.91;105410;1251;73784;-67
2024/01/02 03:58:43;;;;;;;114.00;53.70;;;;;;;4.67;86.63;100270.28;105326;1256;138987;-66
2024/01/02 04:01:09;;;;;;;114.60;52.40;;;;;;;4.66;86.85;100271.82;105460;1254;60731;-66
2024/01/02 04:03:36;;;;;;;107.70;55.60;;;;;;;4.69;87.04;100269.48;105143;1254;138788;-66
2024/01/02 04:06:03;;;;;;;120.40;55.10;;;;;;;4.70;86.97;100272.98;105357;1256;66331;-67
2024/01/02 04:08:30;;;;;;;115.40;54.10;;;;;;;4.70;87.13;100273.34;105322;1252;71941;-65
2024/01/02 04:10:57;;;;;;;118.10;53.40;;;;;;;4.70;87.18;100270.02;105250;1256;139310;-66
2024/01/02 04:13:23;;;;;;;119.90;54.20;;;;;;;4.67;87.17;100269.25;105349;1254;61451;-67
2024/01/02 04:15:50;;;;;;;121.50;54.10;;;;;;;4.67;87.26;100269.95;105117;1257;141759;-67
2024/01/02 04:18:16;;;;;;;110.50;50.40;;;;;;;4.64;87.11;100270.33;105319;1254;67454;-59
2024/01/02 04:20:43;;;;;;;91.70;41.70;;;;;;;4.59;87.06;100270.64;105303;1254;139156;-59
2024/01/02 04:23:10;;;;;;;99.20;39.10;;;;;;;4.52;86.97;100273.80;105438;1251;61285;-58
2024/01/02 04:25:37;;;;;;;81.80;33.80;;;;;;;4.45;87.05;100276.15;105327;1256;61704;-60
2024/01/02 04:28:03;;;;;;;71.90;30.20;;;;;;;4.39;87.17;100278.86;105215;1254;138852;-67
2024/01/02 04:30:30;;;;;;;74.70;32.00;;;;;;;4.34;87.17;100282.45;105292;1258;64845;-66
2024/01/02 04:32:57;;;;;;;76.60;31.50;;;;;;;4.31;87.34;100280.91;105282;1253;138773;-59
2024/01/02 04:35:23;;;;;;;72.80;28.10;;;;;;;4.28;87.39;100288.27;105350;1256;61770;-67
2024/01/02 04:37:50;;;;;;;53.20;24.10;;;;;;;4.23;87.29;100287.54;105335;1259;62116;-60
2024/01/02 04:40:17;;;;;;;51.00;24.70;;;;;;;4.16;87.14;100285.33;105166;1256;138544;-60
2024/01/02 04:42:44;;;;;;;55.90;24.50;;;;;;;4.07;87.07;100281.80;105184;1256;67273;-59
2024/01/02 04:45:10;;;;;;;55.30;22.80;;;;;;;3.99;87.16;100280.27;105237;1256;138623;-60
2024/01/02 04:47:37;;;;;;;51.40;21.90;;;;;;;3.96;87.31;100282.35;105429;1254;61343;-59
2024/01/02 04:50:04;;;;;;;51.20;23.10;;;;;;;3.95;87.54;100282.85;105361;1256;61388;-59
2024/01/02 04:52:31;;;;;;;48.40;21.70;;;;;;;3.96;87.54;100287.08;109089;1253;138601;-60
2024/01/02 04:54:59;;;;;;;49.50;21.00;;;;;;;3.94;87.51;100284.00;105482;1251;65459;-59
2024/01/02 04:57:26;;;;;;;50.80;22.90;;;;;;;3.93;87.61;100283.09;106534;1256;138786;-58
2024/01/02 04:59:53;;;;;;;44.60;19.60;;;;;;;3.93;87.62;100281.04;105279;1256;61206;-58
2024/01/02 05:02:22;;;;;;;44.10;20.30;;;;;;;3.93;87.65;100275.13;105467;1256;61218;-59
2024/01/02 05:04:50;;;;;;;43.50;20.20;;;;;;;3.92;87.59;100277.17;106398;1254;138777;-59
2024/01/02 05:07:17;;;;;;;40.00;19.40;;;;;;;3.89;87.53;100280.70;105536;1256;66931;-60
2024/01/02 05:09:44;;;;;;;38.40;19.20;;;;;;;3.89;87.67;100277.89;109202;1253;139084;-66
2024/01/02 05:12:11;;;;;;;38.40;18.20;;;;;;;3.89;87.62;100279.98;109386;1253;59004;-66
2024/01/02 05:14:38;;;;;;;39.00;17.60;;;;;;;3.87;87.56;100280.78;106512;1254;61216;-67
2024/01/02 05:17:07;;;;;;;36.60;18.20;;;;;;;3.88;87.49;100288.09;105385;1254;139068;-66
2024/01/02 05:19:34;;;;;;;40.20;17.70;;;;;;;3.84;87.53;100285.33;109323;1254;66321;-67
2024/01/02 05:22:01;;;;;;;42.80;18.50;;;;;;;3.84;87.51;100289.99;109212;1253;138658;-66
2024/01/02 05:24:27;;;;;;;40.10;18.90;;;;;;;3.82;87.45;100286.27;109342;1253;59284;-67
2024/01/02 05:26:54;;;;;;;33.70;17.50;;;;;;;3.82;87.53;100289.38;109218;1253;139465;-66
2024/01/02 05:29:21;;;;;;;41.20;19.00;;;;;;;3.80;87.46;100293.13;109358;1252;73738;-59
2024/01/02 05:31:47;;;;;;;39.70;17.60;;;;;;;3.81;87.55;100293.52;109382;1253;66262;-60
2024/01/02 05:34:14;;;;;;;40.60;18.50;;;;;;;3.83;87.55;100296.02;109284;1253;138868;-67
2024/01/02 05:36:41;;;;;;;33.40;16.80;;;;;;;3.80;87.33;100294.70;109381;1253;59224;-66
2024/01/02 05:39:07;;;;;;;35.50;16.30;;;;;;;3.76;87.28;100293.81;109243;1253;138762;-66
2024/01/02 05:41:34;;;;;;;34.20;15.20;;;;;;;3.77;87.48;100294.36;109426;1252;74282;-59
2024/01/02 05:44:01;;;;;;;35.90;17.30;;;;;;;3.77;87.53;100289.34;109440;1252;65409;-59
2024/01/02 05:46:28;;;;;;;38.60;17.00;;;;;;;3.79;87.53;100290.80;109097;1252;138495;-59
2024/01/02 05:48:55;;;;;;;34.70;16.30;;;;;;;3.81;87.59;100292.13;105376;1259;61215;-59
2024/01/02 05:51:21;;;;;;;36.80;16.10;;;;;;;3.84;87.59;100292.27;105418;1256;138619;-59
2024/01/02 05:53:48;;;;;;;39.00;17.10;;;;;;;3.87;87.68;100293.95;105437;1252;75370;-66
2024/01/02 05:56:17;;;;;;;33.50;18.00;;;;;;;3.85;87.43;100296.31;107045;1254;66918;-66
2024/01/02 05:58:44;;;;;;;38.10;17.20;;;;;;;3.79;87.39;100300.38;105273;1256;138660;-67
2024/01/02 06:01:11;;;;;;;35.00;17.10;;;;;;;3.78;87.50;100305.02;105458;1254;61259;-60
2024/01/02 06:03:38;;;;;;;33.20;16.40;;;;;;;3.78;87.65;100301.55;105414;1254;139016;-66
2024/01/02 06:06:05;;;;;;;29.30;15.80;;;;;;;3.78;87.57;100301.19;105429;1256;75842;-67
2024/01/02 06:08:32;;;;;;;36.00;17.60;;;;;;;3.76;87.59;100301.44;105348;1255;66387;-66
2024/01/02 06:10:58;;;;;;;31.90;15.80;;;;;;;3.75;87.71;100297.58;105326;1256;138638;-64
2024/01/02 06:13:25;;;;;;;36.10;17.10;;;;;;;3.75;87.73;100293.95;105325;1252;61247;-63
2024/01/02 06:15:52;;;;;;;31.20;16.50;;;;;;;3.78;87.76;100299.10;105355;1264;138926;-64
2024/01/02 06:18:18;;;;;;;36.70;16.90;;;;;;;3.76;87.58;100300.41;105434;1256;74990;-65
2024/01/02 06:20:45;;;;;;;38.00;17.60;;;;;;;3.74;87.56;100305.36;105403;1254;138677;-64
2024/01/02 06:23:11;;;;;;;33.80;17.10;;;;;;;3.72;87.74;100302.29;105436;1253;73866;-66
2024/01/02 06:25:38;;;;;;;33.70;16.50;;;;;;;3.71;87.70;100299.83;105476;1254;61343;-66
2024/01/02 06:28:05;;;;;;;34.40;17.50;;;;;;;3.72;87.91;100300.40;105228;1256;138946;-66
2024/01/02 06:30:31;;;;;;;33.90;16.10;;;;;;;3.73;87.92;100298.37;105486;1255;75939;-67
2024/01/02 06:32:58;;;;;;;33.30;17.30;;;;;;;3.77;87.96;100297.48;105410;1254;139109;-65
2024/01/02 06:35:25;;;;;;;34.90;17.20;;;;;;;3.79;87.97;100298.11;105383;1256;71861;-65
2024/01/02 06:37:52;;;;;;;35.70;16.30;;;;;;;3.83;88.17;100299.49;108539;1257;61208;-65
2024/01/02 06:40:19;;;;;;;30.90;16.20;;;;;;;3.84;88.06;100296.74;109229;1254;138872;-65
2024/01/02 06:42:45;;;;;;;33.90;15.60;;;;;;;3.78;87.83;100297.73;109410;1253;74791;-65
2024/01/02 06:45:12;;;;;;;31.80;16.80;;;;;;;3.79;87.89;100305.55;109304;1251;138749;-66
2024/01/02 06:47:39;;;;;;;32.40;16.40;;;;;;;3.78;87.77;100304.48;109406;1252;71834;-65
2024/01/02 06:50:06;;;;;;;30.60;15.80;;;;;;;3.82;87.88;100304.82;109367;1254;59332;-65
2024/01/02 06:52:33;;;;;;;36.00;17.00;;;;;;;3.87;87.90;100306.97;109223;1252;139047;-66
2024/01/02 06:54:59;;;;;;;34.30;18.00;;;;;;;3.83;87.49;100308.55;109376;1251;74940;-66
2024/01/02 06:57:26;;;;;;;37.10;17.80;;;;;;;3.79;87.42;100306.63;109229;1253;139175;-67
2024/01/02 06:59:53;;;;;;;31.50;16.00;;;;;;;3.79;87.67;100305.38;109369;1252;72735;-66
2024/01/02 07:02:19;;;;;;;31.60;16.70;;;;;;;3.77;87.66;100302.54;109252;1256;59104;-66
2024/01/02 07:04:46;;;;;;;35.20;16.60;;;;;;;3.75;87.57;100302.27;109306;1252;138421;-65
2024/01/02 07:07:13;;;;;;;43.80;19.40;;;;;;;3.72;87.54;100300.56;109319;1252;74652;-66
2024/01/02 07:09:39;;;;;;;43.20;20.10;;;;;;;3.66;87.39;100299.81;106362;1255;138477;-65
2024/01/02 07:12:07;;;;;;;41.90;17.60;;;;;;;3.61;87.54;100300.41;105305;1257;73564;-65
2024/01/02 07:14:33;;;;;;;36.40;17.90;;;;;;;3.59;87.62;100299.45;105449;1260;61353;-65
2024/01/02 07:17:00;;;;;;;33.80;16.40;;;;;;;3.56;87.76;100298.47;105421;1256;139414;-64
2024/01/02 07:19:27;;;;;;;27.30;13.80;;;;;;;3.56;87.85;100295.34;105139;1251;75995;-65
2024/01/02 07:21:53;;;;;;;24.50;13.00;;;;;;;3.52;87.77;100294.30;105318;1257;138877;-65
2024/01/02 07:24:20;;;;;;;24.70;12.50;;;;;;;3.46;87.72;100296.95;105318;1256;73853;-66
2024/01/02 07:26:47;;;;;;;24.30;13.00;;;;;;;3.38;87.87;100298.66;105270;1256;138582;-66
2024/01/02 07:29:13;;;;;;;22.80;13.30;;;;;;;3.35;88.10;100292.27;105467;1256;61292;-65
2024/01/02 07:31:40;;;;;;;28.60;14.90;;;;;;;3.31;88.23;100291.26;105480;1254;75063;-65
2024/01/02 07:34:07;;;;;;;26.80;14.50;;;;;;;3.30;88.23;100295.36;105395;1252;139091;-65
2024/01/02 07:36:33;;;;;;;33.50;16.60;;;;;;;3.25;88.20;100298.42;105391;1252;72839;-65
2024/01/02 07:39:00;;;;;;;45.30;19.40;;;;;;;3.25;88.55;100298.07;105307;1255;139113;-66
2024/01/02 07:41:27;;;;;;;46.90;20.30;;;;;;;3.26;88.77;100295.52;105432;1254;61320;-66
2024/01/02 07:43:53;;;;;;;30.80;16.40;;;;;;;3.25;88.61;100293.77;105475;1253;74808;-66
2024/01/02 07:46:20;;;;;;;23.90;13.70;;;;;;;3.20;88.58;100294.21;105307;1257;139493;-65
2024/01/02 07:48:47;;;;;;;25.10;13.80;;;;;;;3.22;88.62;100293.94;105324;1256;74005;-66
2024/01/02 07:51:13;;;;;;;25.70;14.20;;;;;;;3.27;89.01;100296.44;105157;1252;139274;-66
2024/01/02 07:53:40;;;;;;;22.80;12.30;;;;;;;3.32;89.15;100298.56;105371;1252;61279;-62
2024/01/02 07:56:07;;;;;;;18.50;10.60;;;;;;;3.38;89.06;100305.27;105406;1254;74680;-67
2024/01/02 07:58:33;;;;;;;20.30;10.80;;;;;;;3.41;88.94;100311.29;105241;1257;138785;-65
2024/01/02 08:01:00;;;;;;;16.90;9.90;;;;;;;3.43;88.94;100315.41;105515;1254;73778;-66
2024/01/02 08:03:27;;;;;;;17.90;9.50;;;;;;;3.44;88.83;100316.50;105270;1252;138352;-66
2024/01/02 08:05:54;;;;;;;16.60;9.30;;;;;;;3.47;88.80;100318.87;105372;1256;61250;-63
2024/01/02 08:08:21;;;;;;;15.50;9.30;;;;;;;3.49;88.94;100321.23;105304;1258;75270;-62
2024/01/02 08:10:47;;;;;;;15.90;8.90;;;;;;;3.51;88.71;100321.12;105351;1256;138705;-62
2024/01/02 08:13:14;;;;;;;14.10;8.30;;;;;;;3.51;88.65;100316.44;105386;1254;73309;-65
2024/01/02 08:15:41;;;;;;;16.90;8.60;;;;;;;3.50;88.68;100314.50;105101;1259;138536;-65
2024/01/02 08:18:08;;;;;;;18.10;11.40;;;;;;;3.52;88.63;100317.35;105351;1253;61392;-65
2024/01/02 08:20:34;;;;;;;21.60;14.00;;;;;;;3.52;88.55;100315.30;105366;1264;75386;-66
2024/01/02 08:23:01;;;;;;;18.00;11.20;;;;;;;3.42;88.06;100313.61;105238;1259;138677;-66
2024/01/02 08:25:28;;;;;;;15.50;9.60;;;;;;;3.37;88.25;100313.89;105359;1256;75190;-66
2024/01/02 08:27:54;;;;;;;17.40;10.20;;;;;;;3.37;88.43;100319.11;109201;1254;138590;-65
2024/01/02 08:30:21;;;;;;;14.90;9.30;;;;;;;3.38;88.56;100318.80;109399;1252;60450;-65
2024/01/02 08:32:48;;;;;;;16.80;10.90;;;;;;;3.36;88.30;100318.69;106585;1256;138340;-65
2024/01/02 08:35:14;;;;;;;20.60;12.00;;;;;;;3.35;88.34;100315.73;105478;1253;65424;-65
2024/01/02 08:37:41;;;;;;;20.30;15.00;;;;;;;3.32;88.31;100316.45;105420;1257;72201;-66
2024/01/02 08:40:10;;;;;;;25.80;15.90;;;;;;;3.30;88.31;100318.79;105214;1257;138459;-65
2024/01/02 08:42:37;;;;;;;34.50;23.70;;;;;;;3.35;88.76;100319.84;109343;1253;59999;-66
2024/01/02 08:45:05;;;;;;;54.00;36.50;;;;;;;3.32;88.30;100318.55;108714;1257;139879;-62
2024/01/02 08:47:33;;;;;;;62.10;47.10;;;;;;;3.27;88.30;100315.50;105473;1265;66854;-61
2024/01/02 08:50:00;;;;;;;16.50;11.90;;;;;;;3.27;88.42;100314.81;109364;1253;71589;-65
2024/01/02 08:52:27;;;;;;;16.10;10.80;;;;;;;3.30;88.64;100315.13;105615;1257;138879;-65
2024/01/02 08:54:54;;;;;;;13.30;9.10;;;;;;;3.34;88.67;100313.91;105441;1255;61488;-65
2024/01/02 08:57:21;;;;;;;12.10;9.10;;;;;;;3.37;88.54;100310.41;105247;1252;138540;-65
2024/01/02 08:59:47;;;;;;;35.40;25.20;;;;;;;3.35;88.39;100309.64;105524;1256;65522;-65
2024/01/02 09:02:14;;;;;;;119.70;83.10;;;;;;;3.33;88.41;100306.63;105443;1257;72987;-61
2024/01/02 09:04:43;;;;;;;86.50;62.50;;;;;;;3.35;88.46;100307.20;105244;1260;138642;-60
2024/01/02 09:07:10;;;;;;;32.40;26.20;;;;;;;3.37;88.60;100306.41;105372;1257;61298;-62
2024/01/02 09:09:36;;;;;;;17.60;12.00;;;;;;;3.35;88.40;100307.04;109261;1254;138895;-63
2024/01/02 09:12:03;;;;;;;24.30;20.90;;;;;;;3.32;88.38;100306.88;109366;1253;65157;-62
2024/01/02 09:14:30;;;;;;;18.90;14.20;;;;;;;3.29;88.41;100304.20;106253;1259;73757;-63
2024/01/02 09:16:57;;;;;;;14.60;10.30;;;;;;;3.37;88.59;100308.51;105241;1255;138659;-62
2024/01/02 09:19:24;;;;;;;24.50;21.00;;;;;;;3.43;88.66;100310.02;105291;1267;61318;-61
2024/01/02 09:21:50;;;;;;;29.90;22.70;;;;;;;3.46;88.53;100309.11;105222;1256;139513;-62
2024/01/02 09:24:18;;;;;;;35.10;27.70;;;;;;;3.46;88.44;100311.02;105431;1256;65621;-62
2024/01/02 09:26:45;;;;;;;14.70;10.60;;;;;;;3.49;88.52;100318.27;105235;1253;138648;-63
2024/01/02 09:29:12;;;;;;;14.90;10.10;;;;;;;3.48;88.27;100324.80;109346;1253;59050;-62
2024/01/02 09:31:41;;;;;;;19.10;9.70;;;;;;;3.41;87.95;100321.34;109346;1252;61454;-62
2024/01/02 09:34:09;;;;;;;15.80;11.30;;;;;;;3.33;87.91;100322.06;109269;1254;138462;-62
2024/01/02 09:36:36;;;;;;;13.40;9.60;;;;;;;3.24;87.76;100320.22;109156;1254;66901;-62
2024/01/02 09:39:03;;;;;;;12.60;9.20;;;;;;;3.25;88.05;100319.23;109132;1256;160828;-62
2024/01/02 09:41:50;;;;;;;16.40;10.90;;;;;;;3.22;87.94;100327.06;109367;1254;59199;-65
2024/01/02 09:44:38;;;;;;;14.60;9.80;;;;;;;3.22;88.04;100321.86;109387;1253;59221;-65
2024/01/02 09:47:43;;;;;;;14.90;9.30;;;;;;;3.24;88.32;100324.72;106243;1252;138719;-61
2024/01/02 09:50:12;;;;;;;17.80;11.70;;;;;;;3.28;88.19;100320.75;105309;1254;65300;-65
2024/01/02 09:52:45;;;;;;;17.20;10.50;;;;;;;3.30;88.34;100319.98;105550;1258;138528;-65
2024/01/02 09:55:29;;;;;;;15.60;10.00;;;;;;;3.35;88.47;100322.79;105443;1256;61183;-64
2024/01/02 09:58:02;;;;;;;13.40;9.40;;;;;;;3.38;88.36;100320.52;105239;1258;138789;-66
2024/01/02 10:00:52;;;;;;;18.20;10.30;;;;;;;3.41;88.32;100319.97;105416;1256;75174;-65
2024/01/02 10:03:54;;;;;;;15.90;9.00;;;;;;;3.42;88.25;100321.39;105268;1254;139046;-66
2024/01/02 10:06:39;;;;;;;15.60;10.30;;;;;;;3.44;88.28;100317.84;105343;1258;73211;-66
2024/01/02 10:09:34;;;;;;;17.70;11.50;;;;;;;3.44;88.36;100315.98;105834;1256;139438;-67
2024/01/02 10:12:10;;;;;;;;;;;;;;;3.45;88.28;100312.00;105476;1256;61853;-65
2024/01/02 10:15:05;;;;;;;15.20;9.30;;;;;;;3.45;88.34;100308.05;106867;1254;75274;-66
2024/01/02 10:17:32;;;;;;;16.40;10.90;;;;;;;3.40;88.15;100305.38;105473;1257;65936;-65
2024/01/02 10:20:26;;;;;;;16.80;10.30;;;;;;;3.34;87.95;100307.50;105492;1264;72197;-66
2024/01/02 10:23:03;;;;;;;15.30;10.30;;;;;;;3.22;87.80;100308.34;105400;1257;138813;-65
2024/01/02 10:25:29;;;;;;;18.40;10.60;;;;;;;3.22;88.24;100304.00;105472;1257;61243;-65
2024/01/02 10:28:08;;;;;;;17.60;10.80;;;;;;;3.28;88.52;100298.75;105271;1255;140236;-65
2024/01/02 10:30:58;;;;;;;20.80;11.70;;;;;;;3.38;88.81;100296.77;105537;1256;66860;-66
2024/01/02 10:33:31;;;;;;;20.80;11.30;;;;;;;3.46;88.86;100291.60;105167;1257;139142;-65
2024/01/02 10:36:01;;;;;;;16.40;11.60;;;;;;;3.49;88.70;100283.20;105476;1255;61353;-65
2024/01/02 10:38:36;;;;;;;19.70;11.10;;;;;;;3.49;88.66;100275.92;105453;1256;61392;-64
2024/01/02 10:41:38;;;;;;;23.30;12.80;;;;;;;3.50;88.61;100269.56;105445;1257;138426;-66
2024/01/02 10:44:20;;;;;;;20.30;12.90;;;;;;;3.44;88.37;100262.52;105450;1254;65343;-66
2024/01/02 10:47:02;;;;;;;23.00;12.00;;;;;;;3.43;88.53;100263.54;105292;1254;139023;-66
2024/01/02 10:49:50;;;;;;;22.20;14.00;;;;;;;3.45;88.66;100265.54;105441;1253;61376;-66
2024/01/02 10:52:24;;;;;;;22.70;13.40;;;;;;;3.53;89.06;100267.09;108590;1254;138456;-66
2024/01/02 10:55:09;;;;;;;20.90;12.90;;;;;;;3.58;89.05;100270.45;106716;1255;74649;-66
2024/01/02 10:57:46;;;;;;;24.60;12.60;;;;;;;3.58;88.90;100266.13;107443;1253;139087;-65
2024/01/02 11:00:20;;;;;;;19.80;12.90;;;;;;;3.60;88.91;100266.20;105934;1257;71515;-65
2024/01/02 11:03:10;;;;;;;23.00;12.90;;;;;;;3.64;89.03;100267.61;105549;1257;138759;-65
2024/01/02 11:05:39;;;;;;;21.80;13.00;;;;;;;3.70;89.05;100264.41;105441;1257;61258;-66
2024/01/02 11:08:18;;;;;;;21.30;13.10;;;;;;;3.74;88.83;100257.09;105399;1257;73272;-65
2024/01/02 11:10:55;;;;;;;30.60;14.00;;;;;;;3.77;88.94;100258.96;106834;1255;138943;-64
2024/01/02 11:13:22;;;;;;;24.90;14.70;;;;;;;3.79;88.89;100256.63;105649;1253;73856;-65